sensor_id;sensor_type;location;lat;lon;timestamp;P1;durP1;ratioP1;P2;durP2;ratioP2
74644;SDS011;63163;55.630;37.594;2022-09-04T00:00:13;5.9;;;2.7;;
74644;SDS011;63163;55.630;37.594;2022-09-04T00:01:17;5.8;;;2.6;;
74644;SDS011;63163;55.630;37.594;2022-09-04T00:02:23;5.7;;;2.7;;
74644;SDS011;63163;55.630;37.594;2022-09-04T00:03:27;5.2;;;2.5;;
74644;SDS011;63163;55.630;37.594;2022-09-04T00:04:33;5.8;;;2.6;;
74644;SDS011;63163;55.630;37.594;2022-09-04T00:05:40;5.1;;;2.7;;
74644;SDS011;63163;55.630;37.594;2022-09-04T00:06:47;6.1;;;2.6;;
74644;SDS011;63163;55.630;37.594;2022-09-04T00:07:54;4.3;;;2.5;;
74644;SDS011;63163;55.630;37.594;2022-09-04T00:09:00;4.0;;;2.5;;
74644;SDS011;63163;55.630;37.594;2022-09-04T00:10:03;5.1;;;2.5;;
74644;SDS011;63163;55.630;37.594;2022-09-04T00:11:12;4.1;;;2.5;;
74644;SDS011;63163;55.630;37.594;2022-09-04T00:12:18;5.3;;;2.6;;
74644;SDS011;63163;55.630;37.594;2022-09-04T00:13:23;5.5;;;2.5;;
74644;SDS011;63163;55.630;37.594;2022-09-04T00:14:29;4.9;;;2.5;;
74644;SDS011;63163;55.630;37.594;2022-09-04T00:15:31;4.4;;;2.4;;
74644;SDS011;63163;55.630;37.594;2022-09-04T00:16:37;5.0;;;2.4;;
74644;SDS011;63163;55.630;37.594;2022-09-04T00:17:43;5.3;;;2.5;;
74644;SDS011;63163;55.630;37.594;2022-09-04T00:18:46;4.0;;;2.2;;
74644;SDS011;63163;55.630;37.594;2022-09-04T00:19:49;5.0;;;2.5;;
74644;SDS011;63163;55.630;37.594;2022-09-04T00:20:53;4.8;;;2.5;;
74644;SDS011;63163;55.630;37.594;2022-09-04T00:21:56;4.7;;;2.8;;
74644;SDS011;63163;55.630;37.594;2022-09-04T00:22:59;6.6;;;2.8;;
74644;SDS011;63163;55.630;37.594;2022-09-04T00:24:02;4.5;;;2.3;;
74644;SDS011;63163;55.630;37.594;2022-09-04T00:25:06;4.5;;;2.6;;
74644;SDS011;63163;55.630;37.594;2022-09-04T00:26:10;5.8;;;2.6;;
74644;SDS011;63163;55.630;37.594;2022-09-04T00:27:16;5.5;;;2.5;;
74644;SDS011;63163;55.630;37.594;2022-09-04T00:28:24;6.3;;;3.0;;
74644;SDS011;63163;55.630;37.594;2022-09-04T00:29:28;5.9;;;2.7;;
74644;SDS011;63163;55.630;37.594;2022-09-04T00:30:34;6.3;;;2.6;;
74644;SDS011;63163;55.630;37.594;2022-09-04T00:31:41;6.2;;;2.9;;
74644;SDS011;63163;55.630;37.594;2022-09-04T00:32:44;5.8;;;2.8;;
74644;SDS011;63163;55.630;37.594;2022-09-04T00:33:50;7.8;;;3.1;;
74644;SDS011;63163;55.630;37.594;2022-09-04T00:34:57;6.0;;;3.1;;
74644;SDS011;63163;55.630;37.594;2022-09-04T00:36:01;6.0;;;2.9;;
74644;SDS011;63163;55.630;37.594;2022-09-04T00:37:04;8.0;;;3.5;;
74644;SDS011;63163;55.630;37.594;2022-09-04T00:38:06;5.5;;;3.0;;
74644;SDS011;63163;55.630;37.594;2022-09-04T00:39:09;6.7;;;3.3;;
74644;SDS011;63163;55.630;37.594;2022-09-04T00:40:14;6.4;;;3.3;;
74644;SDS011;63163;55.630;37.594;2022-09-04T00:41:19;7.3;;;3.4;;
74644;SDS011;63163;55.630;37.594;2022-09-04T00:42:27;5.0;;;2.7;;
74644;SDS011;63163;55.630;37.594;2022-09-04T00:43:38;6.0;;;3.1;;
74644;SDS011;63163;55.630;37.594;2022-09-04T00:44:46;7.6;;;3.4;;
74644;SDS011;63163;55.630;37.594;2022-09-04T00:46:03;8.2;;;3.2;;
74644;SDS011;63163;55.630;37.594;2022-09-04T00:47:15;5.2;;;2.9;;
74644;SDS011;63163;55.630;37.594;2022-09-04T00:48:30;5.6;;;3.0;;
74644;SDS011;63163;55.630;37.594;2022-09-04T00:49:40;6.3;;;3.3;;
74644;SDS011;63163;55.630;37.594;2022-09-04T00:50:47;5.8;;;2.9;;
74644;SDS011;63163;55.630;37.594;2022-09-04T00:51:57;5.1;;;2.7;;
74644;SDS011;63163;55.630;37.594;2022-09-04T00:53:06;5.1;;;2.8;;
74644;SDS011;63163;55.630;37.594;2022-09-04T00:54:13;5.8;;;3.0;;
74644;SDS011;63163;55.630;37.594;2022-09-04T00:55:20;6.1;;;2.9;;
74644;SDS011;63163;55.630;37.594;2022-09-04T00:58:34;5.9;;;3.2;;
74644;SDS011;63163;55.630;37.594;2022-09-04T00:59:41;7.6;;;3.6;;
74644;SDS011;63163;55.630;37.594;2022-09-04T01:00:47;5.3;;;2.7;;
74644;SDS011;63163;55.630;37.594;2022-09-04T01:01:48;7.2;;;3.3;;
74644;SDS011;63163;55.630;37.594;2022-09-04T01:05:00;5.6;;;2.8;;
74644;SDS011;63163;55.630;37.594;2022-09-04T01:06:06;5.0;;;2.8;;
74644;SDS011;63163;55.630;37.594;2022-09-04T01:07:11;4.9;;;2.9;;
74644;SDS011;63163;55.630;37.594;2022-09-04T01:08:22;6.1;;;3.3;;
74644;SDS011;63163;55.630;37.594;2022-09-04T01:09:31;7.4;;;3.0;;
74644;SDS011;63163;55.630;37.594;2022-09-04T01:10:34;8.0;;;3.2;;
74644;SDS011;63163;55.630;37.594;2022-09-04T01:11:40;4.8;;;3.0;;
74644;SDS011;63163;55.630;37.594;2022-09-04T01:12:44;5.3;;;3.0;;
74644;SDS011;63163;55.630;37.594;2022-09-04T01:13:49;6.1;;;3.0;;
74644;SDS011;63163;55.630;37.594;2022-09-04T01:14:53;7.3;;;3.2;;
74644;SDS011;63163;55.630;37.594;2022-09-04T01:16:00;5.0;;;3.0;;
74644;SDS011;63163;55.630;37.594;2022-09-04T01:17:05;4.6;;;2.9;;
74644;SDS011;63163;55.630;37.594;2022-09-04T01:18:10;4.7;;;2.6;;
74644;SDS011;63163;55.630;37.594;2022-09-04T01:19:14;7.1;;;3.0;;
74644;SDS011;63163;55.630;37.594;2022-09-04T01:20:25;4.9;;;2.8;;
74644;SDS011;63163;55.630;37.594;2022-09-04T01:21:49;4.4;;;2.8;;
74644;SDS011;63163;55.630;37.594;2022-09-04T01:22:57;5.9;;;2.9;;
74644;SDS011;63163;55.630;37.594;2022-09-04T01:24:05;5.5;;;3.2;;
74644;SDS011;63163;55.630;37.594;2022-09-04T01:25:18;5.5;;;2.9;;
74644;SDS011;63163;55.630;37.594;2022-09-04T01:26:26;4.3;;;2.8;;
74644;SDS011;63163;55.630;37.594;2022-09-04T01:27:27;5.5;;;3.0;;
74644;SDS011;63163;55.630;37.594;2022-09-04T01:28:31;5.6;;;3.2;;
74644;SDS011;63163;55.630;37.594;2022-09-04T01:29:37;5.1;;;2.8;;
74644;SDS011;63163;55.630;37.594;2022-09-04T01:30:42;6.4;;;3.1;;
74644;SDS011;63163;55.630;37.594;2022-09-04T01:31:44;7.4;;;3.2;;
74644;SDS011;63163;55.630;37.594;2022-09-04T01:32:53;6.3;;;3.0;;
74644;SDS011;63163;55.630;37.594;2022-09-04T01:34:00;5.9;;;3.1;;
74644;SDS011;63163;55.630;37.594;2022-09-04T01:35:04;6.2;;;3.3;;
74644;SDS011;63163;55.630;37.594;2022-09-04T01:36:09;5.7;;;3.1;;
74644;SDS011;63163;55.630;37.594;2022-09-04T01:37:19;5.8;;;3.4;;
74644;SDS011;63163;55.630;37.594;2022-09-04T01:38:27;6.3;;;3.2;;
74644;SDS011;63163;55.630;37.594;2022-09-04T01:39:30;6.1;;;3.4;;
74644;SDS011;63163;55.630;37.594;2022-09-04T01:40:35;7.3;;;3.5;;
74644;SDS011;63163;55.630;37.594;2022-09-04T01:41:37;5.8;;;3.0;;
74644;SDS011;63163;55.630;37.594;2022-09-04T01:42:41;5.4;;;3.3;;
74644;SDS011;63163;55.630;37.594;2022-09-04T01:43:43;7.9;;;3.7;;
74644;SDS011;63163;55.630;37.594;2022-09-04T01:44:43;7.0;;;3.3;;
74644;SDS011;63163;55.630;37.594;2022-09-04T01:45:52;7.6;;;3.4;;
74644;SDS011;63163;55.630;37.594;2022-09-04T01:46:59;7.0;;;3.5;;
74644;SDS011;63163;55.630;37.594;2022-09-04T01:48:03;6.5;;;3.3;;
74644;SDS011;63163;55.630;37.594;2022-09-04T01:49:09;8.9;;;3.5;;
74644;SDS011;63163;55.630;37.594;2022-09-04T01:50:12;7.2;;;3.6;;
74644;SDS011;63163;55.630;37.594;2022-09-04T01:51:18;6.4;;;3.1;;
74644;SDS011;63163;55.630;37.594;2022-09-04T01:52:28;6.4;;;3.3;;
74644;SDS011;63163;55.630;37.594;2022-09-04T01:53:29;6.6;;;3.8;;
74644;SDS011;63163;55.630;37.594;2022-09-04T01:54:35;6.3;;;3.5;;
74644;SDS011;63163;55.630;37.594;2022-09-04T01:55:41;6.4;;;3.3;;
74644;SDS011;63163;55.630;37.594;2022-09-04T01:56:44;5.5;;;3.0;;
74644;SDS011;63163;55.630;37.594;2022-09-04T01:57:51;5.9;;;3.4;;
74644;SDS011;63163;55.630;37.594;2022-09-04T01:58:55;7.4;;;3.7;;
74644;SDS011;63163;55.630;37.594;2022-09-04T02:00:00;7.0;;;3.7;;
74644;SDS011;63163;55.630;37.594;2022-09-04T02:01:03;6.2;;;3.7;;
74644;SDS011;63163;55.630;37.594;2022-09-04T02:02:08;6.8;;;3.4;;
74644;SDS011;63163;55.630;37.594;2022-09-04T02:03:11;6.7;;;3.1;;
74644;SDS011;63163;55.630;37.594;2022-09-04T02:04:16;6.4;;;3.9;;
74644;SDS011;63163;55.630;37.594;2022-09-04T02:05:23;5.9;;;3.6;;
74644;SDS011;63163;55.630;37.594;2022-09-04T02:06:28;5.6;;;3.4;;
74644;SDS011;63163;55.630;37.594;2022-09-04T02:07:31;5.8;;;3.6;;
74644;SDS011;63163;55.630;37.594;2022-09-04T02:08:36;8.0;;;3.8;;
74644;SDS011;63163;55.630;37.594;2022-09-04T02:09:40;5.9;;;3.4;;
74644;SDS011;63163;55.630;37.594;2022-09-04T02:10:44;5.7;;;3.3;;
74644;SDS011;63163;55.630;37.594;2022-09-04T02:11:52;7.1;;;3.7;;
74644;SDS011;63163;55.630;37.594;2022-09-04T02:12:58;7.9;;;3.8;;
74644;SDS011;63163;55.630;37.594;2022-09-04T02:14:05;6.3;;;3.8;;
74644;SDS011;63163;55.630;37.594;2022-09-04T02:15:09;8.2;;;3.6;;
74644;SDS011;63163;55.630;37.594;2022-09-04T02:16:14;6.7;;;3.6;;
74644;SDS011;63163;55.630;37.594;2022-09-04T02:17:16;7.6;;;3.8;;
74644;SDS011;63163;55.630;37.594;2022-09-04T02:18:19;7.0;;;3.9;;
74644;SDS011;63163;55.630;37.594;2022-09-04T02:19:27;7.1;;;4.2;;
74644;SDS011;63163;55.630;37.594;2022-09-04T02:20:30;6.4;;;3.4;;
74644;SDS011;63163;55.630;37.594;2022-09-04T02:21:32;6.9;;;3.6;;
74644;SDS011;63163;55.630;37.594;2022-09-04T02:22:37;7.9;;;4.1;;
74644;SDS011;63163;55.630;37.594;2022-09-04T02:23:43;9.3;;;4.3;;
74644;SDS011;63163;55.630;37.594;2022-09-04T02:24:47;7.5;;;4.3;;
74644;SDS011;63163;55.630;37.594;2022-09-04T02:25:52;5.5;;;3.6;;
74644;SDS011;63163;55.630;37.594;2022-09-04T02:26:58;7.1;;;3.8;;
74644;SDS011;63163;55.630;37.594;2022-09-04T02:28:03;6.4;;;3.7;;
74644;SDS011;63163;55.630;37.594;2022-09-04T02:29:07;7.8;;;3.8;;
74644;SDS011;63163;55.630;37.594;2022-09-04T02:30:11;9.0;;;4.0;;
74644;SDS011;63163;55.630;37.594;2022-09-04T02:31:16;9.2;;;3.9;;
74644;SDS011;63163;55.630;37.594;2022-09-04T02:32:18;6.7;;;3.6;;
74644;SDS011;63163;55.630;37.594;2022-09-04T02:33:21;7.3;;;4.3;;
74644;SDS011;63163;55.630;37.594;2022-09-04T02:34:26;7.4;;;4.2;;
74644;SDS011;63163;55.630;37.594;2022-09-04T02:35:29;7.7;;;3.9;;
74644;SDS011;63163;55.630;37.594;2022-09-04T02:36:34;7.1;;;3.9;;
74644;SDS011;63163;55.630;37.594;2022-09-04T02:37:37;6.4;;;4.1;;
74644;SDS011;63163;55.630;37.594;2022-09-04T02:38:43;6.3;;;4.0;;
74644;SDS011;63163;55.630;37.594;2022-09-04T02:39:48;7.0;;;3.7;;
74644;SDS011;63163;55.630;37.594;2022-09-04T02:40:57;6.6;;;3.8;;
74644;SDS011;63163;55.630;37.594;2022-09-04T02:42:01;8.1;;;3.9;;
74644;SDS011;63163;55.630;37.594;2022-09-04T02:43:14;8.2;;;3.5;;
74644;SDS011;63163;55.630;37.594;2022-09-04T02:44:24;10.9;;;3.9;;
74644;SDS011;63163;55.630;37.594;2022-09-04T02:45:28;8.3;;;4.0;;
74644;SDS011;63163;55.630;37.594;2022-09-04T02:46:33;7.6;;;4.1;;
74644;SDS011;63163;55.630;37.594;2022-09-04T02:47:37;9.6;;;4.3;;
74644;SDS011;63163;55.630;37.594;2022-09-04T02:48:45;7.4;;;4.0;;
74644;SDS011;63163;55.630;37.594;2022-09-04T02:49:50;8.6;;;4.0;;
74644;SDS011;63163;55.630;37.594;2022-09-04T02:50:58;7.2;;;3.9;;
74644;SDS011;63163;55.630;37.594;2022-09-04T02:52:08;7.3;;;3.7;;
74644;SDS011;63163;55.630;37.594;2022-09-04T02:53:15;8.1;;;3.9;;
74644;SDS011;63163;55.630;37.594;2022-09-04T02:54:24;6.1;;;3.6;;
74644;SDS011;63163;55.630;37.594;2022-09-04T02:55:30;6.2;;;3.8;;
74644;SDS011;63163;55.630;37.594;2022-09-04T02:56:38;6.3;;;3.7;;
74644;SDS011;63163;55.630;37.594;2022-09-04T02:57:44;8.3;;;4.4;;
74644;SDS011;63163;55.630;37.594;2022-09-04T02:58:56;7.4;;;3.8;;
74644;SDS011;63163;55.630;37.594;2022-09-04T03:00:03;7.9;;;3.6;;
74644;SDS011;63163;55.630;37.594;2022-09-04T03:01:09;5.6;;;3.6;;
74644;SDS011;63163;55.630;37.594;2022-09-04T03:02:14;7.0;;;4.0;;
74644;SDS011;63163;55.630;37.594;2022-09-04T03:03:19;7.3;;;3.8;;
74644;SDS011;63163;55.630;37.594;2022-09-04T03:04:21;7.8;;;4.2;;
74644;SDS011;63163;55.630;37.594;2022-09-04T03:05:24;7.7;;;3.9;;
74644;SDS011;63163;55.630;37.594;2022-09-04T03:06:41;6.2;;;3.4;;
74644;SDS011;63163;55.630;37.594;2022-09-04T03:07:44;6.2;;;3.5;;
74644;SDS011;63163;55.630;37.594;2022-09-04T03:08:50;7.3;;;3.6;;
74644;SDS011;63163;55.630;37.594;2022-09-04T03:09:52;7.8;;;4.1;;
74644;SDS011;63163;55.630;37.594;2022-09-04T03:10:54;6.2;;;4.0;;
74644;SDS011;63163;55.630;37.594;2022-09-04T03:11:58;6.1;;;3.6;;
74644;SDS011;63163;55.630;37.594;2022-09-04T03:13:03;8.1;;;4.1;;
74644;SDS011;63163;55.630;37.594;2022-09-04T03:14:06;8.4;;;4.1;;
74644;SDS011;63163;55.630;37.594;2022-09-04T03:15:08;7.2;;;3.7;;
74644;SDS011;63163;55.630;37.594;2022-09-04T03:16:11;6.3;;;3.9;;
74644;SDS011;63163;55.630;37.594;2022-09-04T03:17:16;6.3;;;3.8;;
74644;SDS011;63163;55.630;37.594;2022-09-04T03:18:19;6.5;;;3.5;;
74644;SDS011;63163;55.630;37.594;2022-09-04T03:19:22;7.5;;;4.0;;
74644;SDS011;63163;55.630;37.594;2022-09-04T03:20:27;7.1;;;4.0;;
74644;SDS011;63163;55.630;37.594;2022-09-04T03:21:31;6.7;;;3.8;;
74644;SDS011;63163;55.630;37.594;2022-09-04T03:22:35;6.7;;;4.0;;
74644;SDS011;63163;55.630;37.594;2022-09-04T03:23:39;7.3;;;3.5;;
74644;SDS011;63163;55.630;37.594;2022-09-04T03:26:03;7.0;;;3.9;;
74644;SDS011;63163;55.630;37.594;2022-09-04T03:27:09;6.8;;;3.8;;
74644;SDS011;63163;55.630;37.594;2022-09-04T03:28:11;9.2;;;4.1;;
74644;SDS011;63163;55.630;37.594;2022-09-04T03:29:16;7.8;;;3.8;;
74644;SDS011;63163;55.630;37.594;2022-09-04T03:30:21;8.3;;;3.9;;
74644;SDS011;63163;55.630;37.594;2022-09-04T03:31:24;8.0;;;4.3;;
74644;SDS011;63163;55.630;37.594;2022-09-04T03:32:27;9.5;;;4.1;;
74644;SDS011;63163;55.630;37.594;2022-09-04T03:33:29;7.8;;;4.2;;
74644;SDS011;63163;55.630;37.594;2022-09-04T03:34:34;8.2;;;4.2;;
74644;SDS011;63163;55.630;37.594;2022-09-04T03:35:36;7.2;;;4.2;;
74644;SDS011;63163;55.630;37.594;2022-09-04T03:36:41;8.5;;;4.4;;
74644;SDS011;63163;55.630;37.594;2022-09-04T03:37:49;7.7;;;4.2;;
74644;SDS011;63163;55.630;37.594;2022-09-04T03:38:54;6.3;;;3.8;;
74644;SDS011;63163;55.630;37.594;2022-09-04T03:40:06;7.3;;;3.8;;
74644;SDS011;63163;55.630;37.594;2022-09-04T03:41:09;6.4;;;4.1;;
74644;SDS011;63163;55.630;37.594;2022-09-04T03:42:13;8.2;;;3.8;;
74644;SDS011;63163;55.630;37.594;2022-09-04T03:43:26;8.2;;;4.0;;
74644;SDS011;63163;55.630;37.594;2022-09-04T03:44:34;8.4;;;3.8;;
74644;SDS011;63163;55.630;37.594;2022-09-04T03:45:38;7.5;;;4.6;;
74644;SDS011;63163;55.630;37.594;2022-09-04T03:46:46;7.2;;;3.8;;
74644;SDS011;63163;55.630;37.594;2022-09-04T03:47:53;7.5;;;3.7;;
74644;SDS011;63163;55.630;37.594;2022-09-04T03:49:03;8.5;;;4.5;;
74644;SDS011;63163;55.630;37.594;2022-09-04T03:50:09;7.0;;;3.9;;
74644;SDS011;63163;55.630;37.594;2022-09-04T03:51:14;6.1;;;4.1;;
74644;SDS011;63163;55.630;37.594;2022-09-04T03:52:19;6.2;;;3.5;;
74644;SDS011;63163;55.630;37.594;2022-09-04T03:53:24;6.5;;;3.8;;
74644;SDS011;63163;55.630;37.594;2022-09-04T03:54:32;6.6;;;3.7;;
74644;SDS011;63163;55.630;37.594;2022-09-04T03:55:45;7.2;;;4.0;;
74644;SDS011;63163;55.630;37.594;2022-09-04T03:56:50;8.2;;;3.7;;
74644;SDS011;63163;55.630;37.594;2022-09-04T03:57:55;4.8;;;3.2;;
74644;SDS011;63163;55.630;37.594;2022-09-04T03:59:00;6.7;;;3.3;;
74644;SDS011;63163;55.630;37.594;2022-09-04T04:00:04;6.4;;;3.4;;
74644;SDS011;63163;55.630;37.594;2022-09-04T04:01:09;6.4;;;3.2;;
74644;SDS011;63163;55.630;37.594;2022-09-04T04:02:15;7.6;;;3.7;;
74644;SDS011;63163;55.630;37.594;2022-09-04T04:03:27;6.0;;;3.4;;
74644;SDS011;63163;55.630;37.594;2022-09-04T04:04:39;5.3;;;3.3;;
74644;SDS011;63163;55.630;37.594;2022-09-04T04:05:46;6.2;;;3.7;;
74644;SDS011;63163;55.630;37.594;2022-09-04T04:06:52;6.6;;;3.6;;
74644;SDS011;63163;55.630;37.594;2022-09-04T04:08:01;7.2;;;4.1;;
74644;SDS011;63163;55.630;37.594;2022-09-04T04:09:07;6.7;;;4.0;;
74644;SDS011;63163;55.630;37.594;2022-09-04T04:10:17;7.0;;;4.0;;
74644;SDS011;63163;55.630;37.594;2022-09-04T04:11:27;8.0;;;4.0;;
74644;SDS011;63163;55.630;37.594;2022-09-04T04:13:35;7.6;;;4.1;;
74644;SDS011;63163;55.630;37.594;2022-09-04T04:14:45;8.9;;;4.1;;
74644;SDS011;63163;55.630;37.594;2022-09-04T04:15:55;10.0;;;4.6;;
74644;SDS011;63163;55.630;37.594;2022-09-04T04:17:00;8.3;;;4.3;;
74644;SDS011;63163;55.630;37.594;2022-09-04T04:18:08;7.5;;;4.6;;
74644;SDS011;63163;55.630;37.594;2022-09-04T04:19:17;7.2;;;4.3;;
74644;SDS011;63163;55.630;37.594;2022-09-04T04:20:22;6.5;;;4.1;;
74644;SDS011;63163;55.630;37.594;2022-09-04T04:21:32;7.2;;;4.0;;
74644;SDS011;63163;55.630;37.594;2022-09-04T04:22:38;7.2;;;3.9;;
74644;SDS011;63163;55.630;37.594;2022-09-04T04:23:53;9.1;;;4.4;;
74644;SDS011;63163;55.630;37.594;2022-09-04T04:25:00;8.1;;;4.6;;
74644;SDS011;63163;55.630;37.594;2022-09-04T04:26:07;6.5;;;3.8;;
74644;SDS011;63163;55.630;37.594;2022-09-04T04:27:12;7.8;;;4.3;;
74644;SDS011;63163;55.630;37.594;2022-09-04T04:28:18;6.7;;;3.8;;
74644;SDS011;63163;55.630;37.594;2022-09-04T04:29:41;6.9;;;3.7;;
74644;SDS011;63163;55.630;37.594;2022-09-04T04:30:47;8.2;;;3.6;;
74644;SDS011;63163;55.630;37.594;2022-09-04T04:31:51;7.4;;;3.7;;
74644;SDS011;63163;55.630;37.594;2022-09-04T04:33:14;6.5;;;3.2;;
74644;SDS011;63163;55.630;37.594;2022-09-04T04:34:18;4.5;;;2.9;;
74644;SDS011;63163;55.630;37.594;2022-09-04T04:35:26;4.8;;;2.8;;
74644;SDS011;63163;55.630;37.594;2022-09-04T04:36:30;4.7;;;2.8;;
74644;SDS011;63163;55.630;37.594;2022-09-04T04:37:37;4.6;;;2.4;;
74644;SDS011;63163;55.630;37.594;2022-09-04T04:38:45;5.7;;;2.9;;
74644;SDS011;63163;55.630;37.594;2022-09-04T04:39:49;7.1;;;2.9;;
74644;SDS011;63163;55.630;37.594;2022-09-04T04:41:01;6.0;;;2.8;;
74644;SDS011;63163;55.630;37.594;2022-09-04T04:42:07;5.7;;;2.5;;
74644;SDS011;63163;55.630;37.594;2022-09-04T04:43:10;4.4;;;2.3;;
74644;SDS011;63163;55.630;37.594;2022-09-04T04:44:14;6.5;;;2.3;;
74644;SDS011;63163;55.630;37.594;2022-09-04T04:45:18;3.0;;;1.8;;
74644;SDS011;63163;55.630;37.594;2022-09-04T04:46:53;5.1;;;2.1;;
74644;SDS011;63163;55.630;37.594;2022-09-04T04:49:09;3.3;;;1.9;;
74644;SDS011;63163;55.630;37.594;2022-09-04T04:50:15;4.3;;;1.9;;
74644;SDS011;63163;55.630;37.594;2022-09-04T04:51:57;4.7;;;2.2;;
74644;SDS011;63163;55.630;37.594;2022-09-04T04:53:01;5.7;;;2.0;;
74644;SDS011;63163;55.630;37.594;2022-09-04T04:54:09;3.5;;;1.5;;
74644;SDS011;63163;55.630;37.594;2022-09-04T04:55:15;3.4;;;1.8;;
74644;SDS011;63163;55.630;37.594;2022-09-04T04:56:21;3.5;;;1.6;;
74644;SDS011;63163;55.630;37.594;2022-09-04T04:57:28;2.9;;;1.7;;
74644;SDS011;63163;55.630;37.594;2022-09-04T04:58:35;2.7;;;1.4;;
74644;SDS011;63163;55.630;37.594;2022-09-04T04:59:41;3.2;;;1.4;;
74644;SDS011;63163;55.630;37.594;2022-09-04T05:00:44;2.6;;;1.3;;
74644;SDS011;63163;55.630;37.594;2022-09-04T05:01:49;3.0;;;1.4;;
74644;SDS011;63163;55.630;37.594;2022-09-04T05:02:55;3.4;;;1.2;;
74644;SDS011;63163;55.630;37.594;2022-09-04T05:04:03;3.9;;;1.3;;
74644;SDS011;63163;55.630;37.594;2022-09-04T05:05:08;1.9;;;1.1;;
74644;SDS011;63163;55.630;37.594;2022-09-04T05:06:13;1.4;;;1.0;;
74644;SDS011;63163;55.630;37.594;2022-09-04T05:07:20;1.8;;;1.1;;
74644;SDS011;63163;55.630;37.594;2022-09-04T05:08:30;4.0;;;1.3;;
74644;SDS011;63163;55.630;37.594;2022-09-04T05:09:35;1.9;;;1.2;;
74644;SDS011;63163;55.630;37.594;2022-09-04T05:10:39;1.8;;;1.2;;
74644;SDS011;63163;55.630;37.594;2022-09-04T05:11:43;4.3;;;1.5;;
74644;SDS011;63163;55.630;37.594;2022-09-04T05:12:50;4.6;;;1.6;;
74644;SDS011;63163;55.630;37.594;2022-09-04T05:13:56;2.6;;;1.2;;
74644;SDS011;63163;55.630;37.594;2022-09-04T05:15:01;2.8;;;1.4;;
74644;SDS011;63163;55.630;37.594;2022-09-04T05:16:03;2.8;;;1.3;;
74644;SDS011;63163;55.630;37.594;2022-09-04T05:17:08;2.3;;;1.2;;
74644;SDS011;63163;55.630;37.594;2022-09-04T05:18:16;2.4;;;1.7;;
74644;SDS011;63163;55.630;37.594;2022-09-04T05:19:20;2.9;;;1.4;;
74644;SDS011;63163;55.630;37.594;2022-09-04T05:20:24;4.1;;;1.2;;
74644;SDS011;63163;55.630;37.594;2022-09-04T05:21:29;2.8;;;1.4;;
74644;SDS011;63163;55.630;37.594;2022-09-04T05:22:33;3.6;;;1.4;;
74644;SDS011;63163;55.630;37.594;2022-09-04T05:23:36;3.2;;;1.4;;
74644;SDS011;63163;55.630;37.594;2022-09-04T05:24:42;6.1;;;1.4;;
74644;SDS011;63163;55.630;37.594;2022-09-04T05:25:45;4.0;;;1.3;;
74644;SDS011;63163;55.630;37.594;2022-09-04T05:26:50;3.2;;;1.2;;
74644;SDS011;63163;55.630;37.594;2022-09-04T05:27:56;3.4;;;1.4;;
74644;SDS011;63163;55.630;37.594;2022-09-04T05:29:00;3.2;;;1.6;;
74644;SDS011;63163;55.630;37.594;2022-09-04T05:30:04;2.8;;;1.4;;
74644;SDS011;63163;55.630;37.594;2022-09-04T05:31:10;2.3;;;1.4;;
74644;SDS011;63163;55.630;37.594;2022-09-04T05:32:12;3.5;;;1.9;;
74644;SDS011;63163;55.630;37.594;2022-09-04T05:33:15;2.3;;;1.2;;
74644;SDS011;63163;55.630;37.594;2022-09-04T05:34:19;1.8;;;1.2;;
74644;SDS011;63163;55.630;37.594;2022-09-04T05:35:22;2.7;;;1.4;;
74644;SDS011;63163;55.630;37.594;2022-09-04T05:36:26;2.7;;;1.3;;
74644;SDS011;63163;55.630;37.594;2022-09-04T05:37:30;2.5;;;1.2;;
74644;SDS011;63163;55.630;37.594;2022-09-04T05:38:34;2.5;;;1.1;;
74644;SDS011;63163;55.630;37.594;2022-09-04T05:39:38;2.5;;;1.4;;
74644;SDS011;63163;55.630;37.594;2022-09-04T05:40:47;2.1;;;1.2;;
74644;SDS011;63163;55.630;37.594;2022-09-04T05:41:57;2.4;;;1.5;;
74644;SDS011;63163;55.630;37.594;2022-09-04T05:43:02;3.2;;;1.2;;
74644;SDS011;63163;55.630;37.594;2022-09-04T05:44:08;2.4;;;1.2;;
74644;SDS011;63163;55.630;37.594;2022-09-04T05:45:14;3.0;;;1.3;;
74644;SDS011;63163;55.630;37.594;2022-09-04T05:46:17;1.9;;;1.0;;
74644;SDS011;63163;55.630;37.594;2022-09-04T05:47:27;2.2;;;1.1;;
74644;SDS011;63163;55.630;37.594;2022-09-04T05:48:32;2.0;;;1.2;;
74644;SDS011;63163;55.630;37.594;2022-09-04T05:49:41;2.7;;;1.2;;
74644;SDS011;63163;55.630;37.594;2022-09-04T05:50:48;2.3;;;1.2;;
74644;SDS011;63163;55.630;37.594;2022-09-04T05:51:54;5.2;;;1.4;;
74644;SDS011;63163;55.630;37.594;2022-09-04T05:53:03;2.4;;;1.1;;
74644;SDS011;63163;55.630;37.594;2022-09-04T05:54:16;3.7;;;1.2;;
74644;SDS011;63163;55.630;37.594;2022-09-04T05:55:24;4.4;;;1.5;;
74644;SDS011;63163;55.630;37.594;2022-09-04T05:56:34;2.0;;;1.4;;
74644;SDS011;63163;55.630;37.594;2022-09-04T05:57:41;2.8;;;1.0;;
74644;SDS011;63163;55.630;37.594;2022-09-04T05:58:52;2.8;;;1.2;;
74644;SDS011;63163;55.630;37.594;2022-09-04T06:00:01;1.7;;;1.0;;
74644;SDS011;63163;55.630;37.594;2022-09-04T06:01:06;2.6;;;1.0;;
74644;SDS011;63163;55.630;37.594;2022-09-04T06:02:15;2.8;;;1.1;;
74644;SDS011;63163;55.630;37.594;2022-09-04T06:03:21;5.2;;;1.4;;
74644;SDS011;63163;55.630;37.594;2022-09-04T06:04:29;2.0;;;1.2;;
74644;SDS011;63163;55.630;37.594;2022-09-04T06:05:39;2.7;;;1.2;;
74644;SDS011;63163;55.630;37.594;2022-09-04T06:06:44;1.8;;;1.0;;
74644;SDS011;63163;55.630;37.594;2022-09-04T06:07:50;1.9;;;1.0;;
74644;SDS011;63163;55.630;37.594;2022-09-04T06:08:56;1.5;;;1.0;;
74644;SDS011;63163;55.630;37.594;2022-09-04T06:10:02;3.4;;;1.0;;
74644;SDS011;63163;55.630;37.594;2022-09-04T06:11:21;2.5;;;1.1;;
74644;SDS011;63163;55.630;37.594;2022-09-04T06:12:27;1.6;;;0.9;;
74644;SDS011;63163;55.630;37.594;2022-09-04T06:13:48;2.8;;;1.2;;
74644;SDS011;63163;55.630;37.594;2022-09-04T06:14:57;2.0;;;1.1;;
74644;SDS011;63163;55.630;37.594;2022-09-04T06:16:21;4.0;;;1.1;;
74644;SDS011;63163;55.630;37.594;2022-09-04T06:17:30;3.1;;;1.0;;
74644;SDS011;63163;55.630;37.594;2022-09-04T06:18:40;2.1;;;0.8;;
74644;SDS011;63163;55.630;37.594;2022-09-04T06:19:47;1.4;;;0.9;;
74644;SDS011;63163;55.630;37.594;2022-09-04T06:20:54;1.7;;;0.9;;
74644;SDS011;63163;55.630;37.594;2022-09-04T06:22:19;1.7;;;1.1;;
74644;SDS011;63163;55.630;37.594;2022-09-04T06:23:26;1.0;;;0.9;;
74644;SDS011;63163;55.630;37.594;2022-09-04T06:24:34;3.6;;;0.9;;
74644;SDS011;63163;55.630;37.594;2022-09-04T06:25:44;2.4;;;0.7;;
74644;SDS011;63163;55.630;37.594;2022-09-04T06:26:55;1.8;;;0.8;;
74644;SDS011;63163;55.630;37.594;2022-09-04T06:28:05;1.1;;;0.7;;
74644;SDS011;63163;55.630;37.594;2022-09-04T06:29:14;1.2;;;0.8;;
74644;SDS011;63163;55.630;37.594;2022-09-04T06:30:17;3.3;;;1.0;;
74644;SDS011;63163;55.630;37.594;2022-09-04T06:31:31;3.7;;;1.0;;
74644;SDS011;63163;55.630;37.594;2022-09-04T06:33:10;1.6;;;0.9;;
74644;SDS011;63163;55.630;37.594;2022-09-04T06:34:18;1.6;;;0.8;;
74644;SDS011;63163;55.630;37.594;2022-09-04T06:35:25;2.1;;;0.9;;
74644;SDS011;63163;55.630;37.594;2022-09-04T06:36:34;2.1;;;0.8;;
74644;SDS011;63163;55.630;37.594;2022-09-04T06:37:41;2.0;;;0.9;;
74644;SDS011;63163;55.630;37.594;2022-09-04T06:38:48;2.1;;;0.8;;
74644;SDS011;63163;55.630;37.594;2022-09-04T06:39:54;2.0;;;0.8;;
74644;SDS011;63163;55.630;37.594;2022-09-04T06:41:03;2.3;;;0.9;;
74644;SDS011;63163;55.630;37.594;2022-09-04T06:42:12;1.6;;;0.7;;
74644;SDS011;63163;55.630;37.594;2022-09-04T06:43:16;1.4;;;0.8;;
74644;SDS011;63163;55.630;37.594;2022-09-04T06:44:19;4.9;;;0.9;;
74644;SDS011;63163;55.630;37.594;2022-09-04T06:45:25;3.5;;;0.8;;
74644;SDS011;63163;55.630;37.594;2022-09-04T06:46:30;3.5;;;0.8;;
74644;SDS011;63163;55.630;37.594;2022-09-04T06:47:36;1.7;;;0.9;;
74644;SDS011;63163;55.630;37.594;2022-09-04T06:48:46;1.3;;;0.7;;
74644;SDS011;63163;55.630;37.594;2022-09-04T06:49:55;3.0;;;0.7;;
74644;SDS011;63163;55.630;37.594;2022-09-04T06:51:02;2.6;;;0.8;;
74644;SDS011;63163;55.630;37.594;2022-09-04T06:52:09;2.3;;;0.9;;
74644;SDS011;63163;55.630;37.594;2022-09-04T06:53:17;1.6;;;0.8;;
74644;SDS011;63163;55.630;37.594;2022-09-04T06:54:25;1.5;;;0.8;;